Time;durP1;ratioP1;P1;durP2;ratioP2;P2;SDS_P1;SDS_P2;PMS_P1;PMS_P2;Temp;Humidity;BMP_temperature;BMP_pressure;BME280_temperature;BME280_humidity;BME280_pressure;Samples;Min_cycle;Max_cycle;Signal;HPM_P1;HPM_P2
2021/06/09 00:06:45;;;;;;;11.83;7.53;;;14.30;99.90;;;;;;20972638;28;20286;-74
2021/06/09 00:16:46;;;;;;;15.43;7.50;;;14.40;99.90;;;;;;20989655;28;20036;-75
2021/06/09 00:26:47;;;;;;;12.73;8.97;;;14.50;99.90;;;;;;20971666;28;20040;-75
2021/06/09 00:36:48;;;;;;;15.18;8.70;;;14.40;99.90;;;;;;20992529;28;20131;-75
2021/06/09 00:46:49;;;;;;;17.27;9.80;;;14.40;99.90;;;;;;21004357;28;20442;-75
2021/06/09 00:56:50;;;;;;;21.17;14.00;;;14.50;99.90;;;;;;21003444;28;20059;-76
2021/06/09 01:06:52;;;;;;;21.83;14.25;;;14.50;99.90;;;;;;21002459;28;20033;-75
2021/06/09 01:16:53;;;;;;;25.67;13.77;;;14.50;99.90;;;;;;21020078;28;20036;-75
2021/06/09 01:26:54;;;;;;;33.43;14.90;;;14.50;99.90;;;;;;21004127;28;20029;-75
2021/06/09 01:36:55;;;;;;;34.73;15.30;;;14.50;99.90;;;;;;21046617;28;20281;-75
2021/06/09 01:46:56;;;;;;;35.03;16.87;;;14.40;99.90;;;;;;21082198;28;20032;-75
2021/06/09 01:56:57;;;;;;;33.87;18.80;;;14.50;99.90;;;;;;21082517;28;20563;-75
2021/06/09 02:06:58;;;;;;;31.00;17.83;;;14.60;99.90;;;;;;21082002;28;20043;-75
2021/06/09 02:16:59;;;;;;;30.63;16.77;;;14.60;99.90;;;;;;21062856;28;20044;-75
2021/06/09 02:27:00;;;;;;;29.87;17.17;;;14.60;99.90;;;;;;21080468;28;20093;-75
2021/06/09 02:37:01;;;;;;;32.57;17.63;;;14.70;99.90;;;;;;21079724;28;20032;-74
2021/06/09 02:47:03;;;;;;;35.67;17.57;;;14.60;99.90;;;;;;21078738;28;20522;-74
2021/06/09 02:57:21;;;;;;;37.83;20.77;;;14.70;99.90;;;;;;21077717;28;20051;-74
2021/06/09 03:07:39;;;;;;;31.95;17.50;;;14.60;99.90;;;;;;21077167;28;20040;-75
2021/06/09 03:17:58;;;;;;;26.00;14.85;;;14.50;99.90;;;;;;21058299;28;20074;-75
2021/06/09 03:28:12;;;;;;;31.90;17.25;;;14.50;99.90;;;;;;21075736;28;20032;-74
2021/06/09 03:38:21;;;;;;;38.17;17.27;;;14.30;99.90;;;;;;21074832;28;20444;-74
2021/06/09 03:48:25;;;;;;;30.75;16.73;;;14.10;99.90;;;;;;21074427;28;20058;-74
2021/06/09 03:58:27;;;;;;;23.15;14.80;;;14.10;99.90;;;;;;21074090;28;20036;-74
2021/06/09 04:08:31;;;;;;;24.67;13.73;;;14.20;99.90;;;;;;21055341;28;20036;-74
2021/06/09 04:18:33;;;;;;;28.02;17.30;;;14.20;99.90;;;;;;21070990;28;20095;-74
2021/06/09 04:28:34;;;;;;;22.80;12.95;;;14.30;99.90;;;;;;21089539;28;20047;-75
2021/06/09 04:38:36;;;;;;;25.60;14.40;;;14.20;99.90;;;;;;21088927;28;20051;-75
2021/06/09 04:48:37;;;;;;;27.80;14.32;;;14.40;99.90;;;;;;21071329;28;20671;-75
2021/06/09 04:58:37;;;;;;;25.07;13.33;;;14.40;99.90;;;;;;21087522;28;20032;-74
2021/06/09 05:08:38;;;;;;;33.73;16.70;;;14.50;99.90;;;;;;21052033;28;20125;-74
2021/06/09 05:18:44;;;;;;;44.13;20.90;;;14.60;99.90;;;;;;21085944;28;20067;-75
2021/06/09 05:28:50;;;;;;;49.78;23.85;;;14.70;99.90;;;;;;21084964;28;20036;-74
2021/06/09 05:38:52;;;;;;;37.33;20.25;;;14.90;99.90;;;;;;21062089;28;20234;-74
2021/06/09 05:48:52;;;;;;;43.60;20.85;;;14.80;99.90;;;;;;21077954;28;20051;-74
2021/06/09 05:58:53;;;;;;;45.63;22.20;;;14.70;99.90;;;;;;21082520;28;20040;-74
2021/06/09 06:08:54;;;;;;;38.93;23.13;;;14.80;99.90;;;;;;21082049;28;20498;-74
2021/06/09 06:18:55;;;;;;;40.90;23.57;;;15.20;99.90;;;;;;21065724;28;20051;-75
2021/06/09 06:28:56;;;;;;;43.07;25.13;;;15.30;99.90;;;;;;21062110;28;20036;-75
2021/06/09 06:38:58;;;;;;;37.23;22.60;;;15.40;99.90;;;;;;21075608;28;20055;-76
2021/06/09 06:48:59;;;;;;;;;;;15.60;99.90;;;;;;21060516;28;20044;-75
2021/06/09 06:59:00;;;;;;;29.73;18.35;;;15.90;99.90;;;;;;21077424;28;20398;-75
2021/06/09 07:09:07;;;;;;;32.40;18.33;;;16.30;99.90;;;;;;21058764;28;20047;-74
2021/06/09 07:19:10;;;;;;;25.27;15.52;;;16.50;99.90;;;;;;21058160;28;20044;-74
2021/06/09 07:29:16;;;;;;;20.17;14.80;;;17.40;99.90;;;;;;21057788;28;20063;-75
2021/06/09 07:39:46;;;;;;;17.17;12.52;;;18.40;99.90;;;;;;21075008;28;20040;-75
2021/06/09 07:49:49;;;;;;;20.95;11.27;;;18.00;99.90;;;;;;21051832;28;20090;-75
2021/06/09 07:59:51;;;;;;;15.68;9.77;;;18.90;99.90;;;;;;21073982;28;20453;-74
2021/06/09 08:09:51;;;;;;;;;;;19.90;99.90;;;;;;21074258;28;20040;-73
2021/06/09 08:19:52;;;;;;;14.43;10.47;;;20.00;99.90;;;;;;21073327;28;19911;-74
2021/06/09 08:29:53;;;;;;;18.80;10.50;;;20.30;99.90;;;;;;21072923;28;20266;-74
2021/06/09 08:39:55;;;;;;;12.90;8.90;;;20.70;99.90;;;;;;21019385;22;20120;-78
2021/06/09 08:49:57;;;;;;;13.70;10.02;;;21.20;99.90;;;;;;20920562;28;20045;-80
2021/06/09 08:59:58;;;;;;;12.65;8.82;;;21.80;99.90;;;;;;20928716;28;20092;-80
2021/06/09 09:09:59;;;;;;;12.90;9.40;;;22.70;99.90;;;;;;20949126;28;20041;-80
2021/06/09 09:20:09;;;;;;;12.27;10.07;;;22.60;99.90;;;;;;20919324;28;20052;-77
2021/06/09 09:30:13;;;;;;;13.63;9.50;;;21.90;99.90;;;;;;20931120;28;20128;-80
2021/06/09 09:40:18;;;;;;;12.77;9.43;;;21.80;99.90;;;;;;20933668;28;20047;-77
2021/06/09 09:50:34;;;;;;;14.68;9.60;;;23.30;99.90;;;;;;20913693;28;20048;-79
2021/06/09 10:00:35;;;;;;;13.95;9.80;;;23.40;99.90;;;;;;20932199;28;20373;-80
2021/06/09 10:10:36;;;;;;;13.33;8.67;;;24.20;99.90;;;;;;20914903;28;20065;-79
2021/06/09 10:20:39;;;;;;;10.50;8.50;;;23.90;99.90;;;;;;20933936;28;20090;-81
2021/06/09 10:30:39;;;;;;;7.97;7.05;;;24.70;99.90;;;;;;20916067;28;20498;-80
2021/06/09 10:40:41;;;;;;;12.55;9.38;;;25.40;99.90;;;;;;20905765;28;20052;-78
2021/06/09 10:50:41;;;;;;;12.70;8.30;;;25.10;99.90;;;;;;20906857;28;20037;-78
2021/06/09 11:00:43;;;;;;;10.50;7.68;;;25.10;99.90;;;;;;20925031;28;20095;-81
2021/06/09 11:10:49;;;;;;;10.77;7.25;;;26.30;99.90;;;;;;20906180;28;20041;-80
2021/06/09 11:20:50;;;;;;;7.53;6.57;;;25.70;99.90;;;;;;20909001;28;20045;-78
2021/06/09 11:30:51;;;;;;;;;;;24.90;99.90;;;;;;20910400;28;20446;-80
2021/06/09 11:41:36;;;;;;;10.23;8.40;;;23.40;99.90;;;;;;20926574;28;19912;-80
2021/06/09 11:51:41;;;;;;;7.50;6.03;;;22.60;99.90;;;;;;20896806;28;20290;-80
2021/06/09 12:01:44;;;;;;;5.53;4.70;;;21.40;99.90;;;;;;20923858;28;20087;-79
2021/06/09 12:11:46;;;;;;;5.65;4.53;;;20.90;99.90;;;;;;20905313;28;20048;-78
2021/06/09 12:21:47;;;;;;;5.55;4.72;;;20.30;99.90;;;;;;20886080;28;20055;-79
2021/06/09 12:31:48;;;;;;;8.40;5.23;;;20.20;99.90;;;;;;20922040;28;20037;-79
2021/06/09 12:41:50;;;;;;;4.90;4.37;;;20.10;99.90;;;;;;20917139;28;20491;-79
2021/06/09 12:52:20;;;;;;;5.25;4.20;;;20.50;99.90;;;;;;20917533;28;20080;-80
2021/06/09 13:02:21;;;;;;;6.13;3.80;;;21.10;99.90;;;;;;20909645;28;20063;-80
2021/06/09 13:12:29;;;;;;;4.83;4.10;;;21.70;99.90;;;;;;20870533;28;20033;-80
2021/06/09 13:22:44;;;;;;;6.43;5.60;;;21.40;99.90;;;;;;20920320;28;20507;-81
2021/06/09 13:32:44;;;;;;;7.85;5.85;;;21.10;99.90;;;;;;20938108;28;20037;-78
2021/06/09 13:43:03;;;;;;;8.07;6.40;;;20.60;99.90;;;;;;20939014;28;20048;-79
2021/06/09 13:53:07;;;;;;;14.48;7.15;;;19.90;99.90;;;;;;20920744;28;20041;-80
2021/06/09 14:03:21;;;;;;;8.85;6.30;;;19.10;99.90;;;;;;20905631;28;20041;-77
2021/06/09 14:13:24;;;;;;;9.40;6.07;;;18.90;99.90;;;;;;20932756;28;20128;-81
2021/06/09 14:23:32;;;;;;;9.63;5.18;;;18.10;99.90;;;;;;20908914;28;20076;-79
2021/06/09 14:34:03;;;;;;;9.18;5.50;;;17.60;99.90;;;;;;20890926;28;20557;-79
2021/06/09 14:44:45;;;;;;;11.93;6.50;;;17.80;99.90;;;;;;20908955;28;20107;-78
2021/06/09 14:54:51;;;;;;;11.02;7.75;;;17.60;99.90;;;;;;20920514;22;20056;-79
2021/06/09 15:04:54;;;;;;;11.98;7.55;;;17.70;99.90;;;;;;20918952;28;20430;-79
2021/06/09 15:14:55;;;;;;;9.65;7.05;;;17.70;99.90;;;;;;20923999;28;20065;-78
2021/06/09 15:24:57;;;;;;;9.93;6.90;;;17.70;99.90;;;;;;20919223;28;20029;-79
2021/06/09 15:34:57;;;;;;;9.30;6.77;;;17.90;99.90;;;;;;20918252;28;20438;-79
2021/06/09 15:44:58;;;;;;;11.77;6.57;;;18.20;99.90;;;;;;20803176;28;20048;-78
2021/06/09 15:54:59;;;;;;;9.40;7.73;;;18.30;99.90;;;;;;20814379;28;20049;-78
2021/06/09 16:05:00;;;;;;;9.03;6.10;;;18.60;99.90;;;;;;20837291;28;20041;-78
2021/06/09 16:15:02;;;;;;;9.07;6.27;;;18.40;99.90;;;;;;20804949;28;20088;-80
2021/06/09 16:25:04;;;;;;;9.82;5.75;;;18.50;99.90;;;;;;20817136;28;20088;-80
2021/06/09 16:35:07;;;;;;;6.93;5.75;;;18.60;99.90;;;;;;20863684;28;20044;-78
2021/06/09 16:45:08;;;;;;;8.90;5.75;;;18.50;99.90;;;;;;20854831;28;20045;-78
2021/06/09 17:05:11;;;;;;;8.30;5.03;;;18.30;99.90;;;;;;20884685;28;20040;-79
2021/06/09 17:15:13;;;;;;;5.35;4.68;;;18.00;99.90;;;;;;20857514;28;20045;-79
2021/06/09 17:25:14;;;;;;;6.72;4.78;;;17.90;99.90;;;;;;20843458;28;20044;-79
2021/06/09 17:35:14;;;;;;;5.90;4.50;;;17.90;99.90;;;;;;20888041;28;20045;-79
2021/06/09 17:45:16;;;;;;;13.83;5.20;;;18.30;99.90;;;;;;20850872;28;20126;-79
2021/06/09 17:55:17;;;;;;;7.50;5.15;;;18.20;99.90;;;;;;20835836;28;20041;-79
2021/06/09 18:05:18;;;;;;;6.87;5.40;;;18.10;99.90;;;;;;20898453;28;20033;-78
2021/06/09 18:15:20;;;;;;;6.83;5.10;;;18.30;99.90;;;;;;20848906;28;20060;-80
2021/06/09 18:25:20;;;;;;;7.65;5.25;;;18.30;99.90;;;;;;20844622;28;20037;-79
2021/06/09 18:35:22;;;;;;;8.63;5.03;;;18.20;99.90;;;;;;20828859;28;20095;-81
2021/06/09 18:45:24;;;;;;;7.32;5.13;;;17.60;99.90;;;;;;20853908;28;20284;-79
2021/06/09 18:55:32;;;;;;;8.90;5.53;;;17.30;99.90;;;;;;20856409;28;20045;-78
2021/06/09 19:05:34;;;;;;;9.50;6.70;;;17.20;99.90;;;;;;20871197;28;20277;-80
2021/06/09 19:15:35;;;;;;;;;;;16.60;99.90;;;;;;20854714;28;20033;-78
2021/06/09 19:25:36;;;;;;;12.63;8.38;;;16.20;99.90;;;;;;20857972;28;20327;-78
2021/06/09 19:35:37;;;;;;;13.73;10.57;;;15.60;99.90;;;;;;20844818;28;20578;-80
2021/06/09 19:45:38;;;;;;;11.70;9.30;;;15.30;99.90;;;;;;20864618;28;20037;-79
2021/06/09 19:55:39;;;;;;;10.53;7.73;;;15.40;99.90;;;;;;20845333;28;20045;-79
2021/06/09 20:05:40;;;;;;;14.13;8.50;;;15.40;99.90;;;;;;20859828;28;20029;-78
2021/06/09 20:15:41;;;;;;;10.83;8.30;;;14.80;99.90;;;;;;20860918;28;20034;-78
2021/06/09 20:35:44;;;;;;;12.27;8.00;;;15.00;99.90;;;;;;20887133;28;20121;-79
2021/06/09 20:45:45;;;;;;;17.30;7.63;;;14.20;99.90;;;;;;20960092;28;20041;-79
2021/06/09 20:55:48;;;;;;;11.77;7.47;;;14.10;99.90;;;;;;20956196;22;20468;-74
2021/06/09 21:05:49;;;;;;;9.73;6.63;;;14.10;99.90;;;;;;21023608;28;20040;-74
2021/06/09 21:15:50;;;;;;;15.97;7.00;;;14.20;99.90;;;;;;21024842;28;20048;-74
2021/06/09 21:25:53;;;;;;;10.43;6.40;;;14.00;99.90;;;;;;21041204;28;20509;-74
2021/06/09 21:35:54;;;;;;;14.38;7.38;;;13.80;99.90;;;;;;20977034;28;20029;-73
2021/06/09 21:45:55;;;;;;;20.87;6.40;;;13.40;99.90;;;;;;20999760;28;20040;-73
2021/06/09 21:55:56;;;;;;;12.03;7.30;;;13.30;99.90;;;;;;20999414;28;20474;-74
2021/06/09 22:05:58;;;;;;;14.93;7.60;;;13.10;99.90;;;;;;20997813;28;20494;-74
2021/06/09 22:15:59;;;;;;;12.43;8.13;;;12.80;99.90;;;;;;20980845;28;20044;-74
2021/06/09 22:26:00;;;;;;;13.63;8.57;;;12.70;99.90;;;;;;20997630;28;20028;-74
2021/06/09 22:36:02;;;;;;;18.40;7.77;;;12.70;99.90;;;;;;20996739;28;20281;-73
2021/06/09 22:46:03;;;;;;;9.97;6.63;;;12.60;99.90;;;;;;20977812;28;20401;-73
2021/06/09 22:56:04;;;;;;;13.30;7.33;;;12.50;99.90;;;;;;20994562;28;20494;-74
2021/06/09 23:06:05;;;;;;;10.60;7.07;;;12.70;99.90;;;;;;20993956;28;20040;-74
2021/06/09 23:16:06;;;;;;;14.43;8.17;;;12.50;99.90;;;;;;20992911;28;20051;-74
2021/06/09 23:26:07;;;;;;;20.00;9.30;;;12.10;99.90;;;;;;20992435;28;20036;-73
2021/06/09 23:36:08;;;;;;;13.77;9.33;;;12.10;99.90;;;;;;20974036;28;20044;-73
2021/06/09 23:46:09;;;;;;;15.40;9.80;;;12.20;99.90;;;;;;20991301;28;20033;-74
2021/06/09 23:56:10;;;;;;;12.87;8.97;;;12.10;99.90;;;;;;20990480;28;20090;-74
